sensor_id;sensor_type;location;lat;lon;timestamp;P1;durP1;ratioP1;P2;durP2;ratioP2
41661;SDS011;27351;45.992;12.666;2023-07-13T00:01:15;13.90;;;2.83;;
41661;SDS011;27351;45.992;12.666;2023-07-13T00:03:40;8.73;;;3.05;;
41661;SDS011;27351;45.992;12.666;2023-07-13T00:06:06;9.75;;;2.08;;
41661;SDS011;27351;45.992;12.666;2023-07-13T00:08:32;6.82;;;2.33;;
41661;SDS011;27351;45.992;12.666;2023-07-13T00:10:59;4.93;;;1.90;;
41661;SDS011;27351;45.992;12.666;2023-07-13T00:13:25;8.73;;;2.30;;
41661;SDS011;27351;45.992;12.666;2023-07-13T00:15:50;5.20;;;2.55;;
41661;SDS011;27351;45.992;12.666;2023-07-13T00:18:17;5.13;;;1.13;;
41661;SDS011;27351;45.992;12.666;2023-07-13T00:20:42;5.67;;;1.33;;
41661;SDS011;27351;45.992;12.666;2023-07-13T00:23:09;4.55;;;1.20;;
41661;SDS011;27351;45.992;12.666;2023-07-13T00:25:34;4.60;;;1.50;;
41661;SDS011;27351;45.992;12.666;2023-07-13T00:28:00;5.60;;;1.40;;
41661;SDS011;27351;45.992;12.666;2023-07-13T00:30:26;4.17;;;1.23;;
41661;SDS011;27351;45.992;12.666;2023-07-13T00:32:51;4.43;;;1.50;;
41661;SDS011;27351;45.992;12.666;2023-07-13T00:35:17;4.53;;;1.20;;
41661;SDS011;27351;45.992;12.666;2023-07-13T00:37:43;6.33;;;1.40;;
41661;SDS011;27351;45.992;12.666;2023-07-13T00:40:10;4.63;;;1.13;;
41661;SDS011;27351;45.992;12.666;2023-07-13T00:42:36;3.70;;;1.10;;
41661;SDS011;27351;45.992;12.666;2023-07-13T00:45:03;4.35;;;1.23;;
41661;SDS011;27351;45.992;12.666;2023-07-13T00:47:29;2.53;;;1.25;;
41661;SDS011;27351;45.992;12.666;2023-07-13T00:49:54;4.03;;;1.40;;
41661;SDS011;27351;45.992;12.666;2023-07-13T00:52:20;6.33;;;1.40;;
41661;SDS011;27351;45.992;12.666;2023-07-13T00:54:46;3.17;;;1.38;;
41661;SDS011;27351;45.992;12.666;2023-07-13T00:57:16;6.07;;;1.50;;
41661;SDS011;27351;45.992;12.666;2023-07-13T00:59:44;4.85;;;1.55;;
41661;SDS011;27351;45.992;12.666;2023-07-13T01:02:14;6.80;;;2.00;;
41661;SDS011;27351;45.992;12.666;2023-07-13T01:04:41;5.43;;;2.17;;
41661;SDS011;27351;45.992;12.666;2023-07-13T01:07:10;7.72;;;2.25;;
41661;SDS011;27351;45.992;12.666;2023-07-13T01:09:36;8.18;;;2.30;;
41661;SDS011;27351;45.992;12.666;2023-07-13T01:12:02;8.03;;;2.40;;
41661;SDS011;27351;45.992;12.666;2023-07-13T01:14:29;6.57;;;1.70;;
41661;SDS011;27351;45.992;12.666;2023-07-13T01:16:55;7.78;;;2.72;;
41661;SDS011;27351;45.992;12.666;2023-07-13T01:19:37;6.85;;;2.10;;
41661;SDS011;27351;45.992;12.666;2023-07-13T01:22:05;8.50;;;2.50;;
41661;SDS011;27351;45.992;12.666;2023-07-13T01:24:37;8.00;;;2.30;;
41661;SDS011;27351;45.992;12.666;2023-07-13T01:27:04;6.05;;;2.20;;
41661;SDS011;27351;45.992;12.666;2023-07-13T01:29:32;4.88;;;1.80;;
41661;SDS011;27351;45.992;12.666;2023-07-13T01:31:58;5.53;;;1.92;;
41661;SDS011;27351;45.992;12.666;2023-07-13T01:34:26;5.88;;;2.67;;
41661;SDS011;27351;45.992;12.666;2023-07-13T01:36:51;4.97;;;2.03;;
41661;SDS011;27351;45.992;12.666;2023-07-13T01:39:22;6.43;;;1.80;;
41661;SDS011;27351;45.992;12.666;2023-07-13T01:41:48;6.18;;;2.10;;
41661;SDS011;27351;45.992;12.666;2023-07-13T01:44:13;5.50;;;1.80;;
41661;SDS011;27351;45.992;12.666;2023-07-13T01:46:39;6.75;;;2.22;;
41661;SDS011;27351;45.992;12.666;2023-07-13T01:49:05;6.17;;;2.03;;
41661;SDS011;27351;45.992;12.666;2023-07-13T01:51:30;4.23;;;1.77;;
41661;SDS011;27351;45.992;12.666;2023-07-13T01:53:56;9.40;;;2.30;;
41661;SDS011;27351;45.992;12.666;2023-07-13T01:56:23;7.03;;;2.20;;
41661;SDS011;27351;45.992;12.666;2023-07-13T01:58:48;6.77;;;2.20;;
41661;SDS011;27351;45.992;12.666;2023-07-13T02:01:14;5.60;;;2.10;;
41661;SDS011;27351;45.992;12.666;2023-07-13T02:03:40;5.13;;;1.90;;
41661;SDS011;27351;45.992;12.666;2023-07-13T02:06:05;5.28;;;2.30;;
41661;SDS011;27351;45.992;12.666;2023-07-13T02:08:32;7.33;;;1.93;;
41661;SDS011;27351;45.992;12.666;2023-07-13T02:10:58;7.40;;;2.30;;
41661;SDS011;27351;45.992;12.666;2023-07-13T02:13:24;3.80;;;1.70;;
41661;SDS011;27351;45.992;12.666;2023-07-13T02:15:50;5.47;;;2.10;;
41661;SDS011;27351;45.992;12.666;2023-07-13T02:18:16;5.05;;;2.00;;
41661;SDS011;27351;45.992;12.666;2023-07-13T02:20:42;5.32;;;2.15;;
41661;SDS011;27351;45.992;12.666;2023-07-13T02:23:08;5.68;;;2.00;;
41661;SDS011;27351;45.992;12.666;2023-07-13T02:25:33;5.97;;;2.07;;
41661;SDS011;27351;45.992;12.666;2023-07-13T02:27:59;6.37;;;1.93;;
41661;SDS011;27351;45.992;12.666;2023-07-13T02:30:25;7.72;;;2.08;;
41661;SDS011;27351;45.992;12.666;2023-07-13T02:32:53;5.25;;;1.90;;
41661;SDS011;27351;45.992;12.666;2023-07-13T02:35:18;8.60;;;2.28;;
41661;SDS011;27351;45.992;12.666;2023-07-13T02:37:44;4.57;;;2.00;;
41661;SDS011;27351;45.992;12.666;2023-07-13T02:40:10;5.67;;;2.17;;
41661;SDS011;27351;45.992;12.666;2023-07-13T02:42:35;6.20;;;2.60;;
41661;SDS011;27351;45.992;12.666;2023-07-13T02:45:01;7.85;;;1.95;;
41661;SDS011;27351;45.992;12.666;2023-07-13T02:47:27;9.02;;;2.55;;
41661;SDS011;27351;45.992;12.666;2023-07-13T02:49:53;6.25;;;2.50;;
41661;SDS011;27351;45.992;12.666;2023-07-13T02:52:19;6.22;;;2.00;;
41661;SDS011;27351;45.992;12.666;2023-07-13T02:54:45;3.58;;;1.83;;
41661;SDS011;27351;45.992;12.666;2023-07-13T02:57:10;6.93;;;2.77;;
41661;SDS011;27351;45.992;12.666;2023-07-13T02:59:36;4.23;;;2.00;;
41661;SDS011;27351;45.992;12.666;2023-07-13T03:02:04;4.88;;;1.95;;
41661;SDS011;27351;45.992;12.666;2023-07-13T03:04:30;4.78;;;1.85;;
41661;SDS011;27351;45.992;12.666;2023-07-13T03:06:55;6.03;;;2.23;;
41661;SDS011;27351;45.992;12.666;2023-07-13T03:09:29;4.43;;;1.60;;
41661;SDS011;27351;45.992;12.666;2023-07-13T03:11:55;6.78;;;2.20;;
41661;SDS011;27351;45.992;12.666;2023-07-13T03:14:26;4.37;;;1.60;;
41661;SDS011;27351;45.992;12.666;2023-07-13T03:16:52;4.95;;;1.58;;
41661;SDS011;27351;45.992;12.666;2023-07-13T03:19:20;4.43;;;1.80;;
41661;SDS011;27351;45.992;12.666;2023-07-13T03:21:49;3.28;;;1.50;;
41661;SDS011;27351;45.992;12.666;2023-07-13T03:24:14;6.33;;;1.87;;
41661;SDS011;27351;45.992;12.666;2023-07-13T03:26:41;5.80;;;1.83;;
41661;SDS011;27351;45.992;12.666;2023-07-13T03:29:06;5.80;;;1.83;;
41661;SDS011;27351;45.992;12.666;2023-07-13T03:31:34;4.50;;;1.90;;
41661;SDS011;27351;45.992;12.666;2023-07-13T03:34:01;4.50;;;1.70;;
41661;SDS011;27351;45.992;12.666;2023-07-13T03:36:29;4.23;;;1.63;;
41661;SDS011;27351;45.992;12.666;2023-07-13T03:38:59;5.32;;;1.80;;
41661;SDS011;27351;45.992;12.666;2023-07-13T03:41:35;4.88;;;1.50;;
41661;SDS011;27351;45.992;12.666;2023-07-13T03:44:01;4.22;;;2.05;;
41661;SDS011;27351;45.992;12.666;2023-07-13T03:46:27;4.00;;;1.70;;
41661;SDS011;27351;45.992;12.666;2023-07-13T03:48:53;7.03;;;1.70;;
41661;SDS011;27351;45.992;12.666;2023-07-13T03:51:18;4.90;;;1.90;;
41661;SDS011;27351;45.992;12.666;2023-07-13T03:53:45;5.15;;;1.77;;
41661;SDS011;27351;45.992;12.666;2023-07-13T03:56:14;5.18;;;1.60;;
41661;SDS011;27351;45.992;12.666;2023-07-13T03:58:42;3.45;;;1.60;;
41661;SDS011;27351;45.992;12.666;2023-07-13T04:01:16;7.57;;;1.83;;
41661;SDS011;27351;45.992;12.666;2023-07-13T04:03:43;3.15;;;1.30;;
41661;SDS011;27351;45.992;12.666;2023-07-13T04:06:14;3.57;;;1.30;;
41661;SDS011;27351;45.992;12.666;2023-07-13T04:08:40;4.15;;;1.60;;
41661;SDS011;27351;45.992;12.666;2023-07-13T04:11:06;4.60;;;1.35;;
41661;SDS011;27351;45.992;12.666;2023-07-13T04:13:32;3.40;;;1.30;;
41661;SDS011;27351;45.992;12.666;2023-07-13T04:15:58;4.70;;;1.20;;
41661;SDS011;27351;45.992;12.666;2023-07-13T04:18:23;5.45;;;1.60;;
41661;SDS011;27351;45.992;12.666;2023-07-13T04:20:49;5.25;;;1.67;;
41661;SDS011;27351;45.992;12.666;2023-07-13T04:23:16;6.00;;;1.30;;
41661;SDS011;27351;45.992;12.666;2023-07-13T04:25:45;2.95;;;1.45;;
41661;SDS011;27351;45.992;12.666;2023-07-13T04:28:11;4.65;;;1.20;;
41661;SDS011;27351;45.992;12.666;2023-07-13T04:30:37;4.00;;;1.10;;
41661;SDS011;27351;45.992;12.666;2023-07-13T04:33:02;3.53;;;1.33;;
41661;SDS011;27351;45.992;12.666;2023-07-13T04:35:28;5.35;;;1.40;;
41661;SDS011;27351;45.992;12.666;2023-07-13T04:37:53;5.77;;;1.40;;
41661;SDS011;27351;45.992;12.666;2023-07-13T04:40:20;4.60;;;1.50;;
41661;SDS011;27351;45.992;12.666;2023-07-13T04:42:46;4.40;;;1.30;;
41661;SDS011;27351;45.992;12.666;2023-07-13T04:45:12;4.90;;;1.30;;
41661;SDS011;27351;45.992;12.666;2023-07-13T04:47:38;3.60;;;1.20;;
41661;SDS011;27351;45.992;12.666;2023-07-13T04:50:04;5.38;;;1.02;;
41661;SDS011;27351;45.992;12.666;2023-07-13T04:52:29;2.15;;;1.15;;
41661;SDS011;27351;45.992;12.666;2023-07-13T04:54:55;5.85;;;1.50;;
41661;SDS011;27351;45.992;12.666;2023-07-13T04:57:20;4.30;;;0.90;;
41661;SDS011;27351;45.992;12.666;2023-07-13T04:59:46;2.42;;;1.15;;
41661;SDS011;27351;45.992;12.666;2023-07-13T05:02:12;3.25;;;1.23;;
41661;SDS011;27351;45.992;12.666;2023-07-13T05:04:37;2.70;;;0.90;;
41661;SDS011;27351;45.992;12.666;2023-07-13T05:07:04;3.22;;;1.00;;
41661;SDS011;27351;45.992;12.666;2023-07-13T05:09:32;7.37;;;0.93;;
41661;SDS011;27351;45.992;12.666;2023-07-13T05:11:58;3.40;;;1.50;;
41661;SDS011;27351;45.992;12.666;2023-07-13T05:14:23;3.38;;;1.25;;
41661;SDS011;27351;45.992;12.666;2023-07-13T05:16:49;2.47;;;1.10;;
41661;SDS011;27351;45.992;12.666;2023-07-13T05:19:14;3.37;;;1.00;;
41661;SDS011;27351;45.992;12.666;2023-07-13T05:21:40;3.75;;;1.30;;
41661;SDS011;27351;45.992;12.666;2023-07-13T05:24:06;2.75;;;1.30;;
41661;SDS011;27351;45.992;12.666;2023-07-13T05:26:32;2.55;;;1.00;;
41661;SDS011;27351;45.992;12.666;2023-07-13T05:29:00;5.18;;;1.20;;
41661;SDS011;27351;45.992;12.666;2023-07-13T05:31:26;4.43;;;1.00;;
41661;SDS011;27351;45.992;12.666;2023-07-13T05:33:53;5.22;;;1.60;;
41661;SDS011;27351;45.992;12.666;2023-07-13T05:36:19;4.55;;;1.10;;
41661;SDS011;27351;45.992;12.666;2023-07-13T05:38:44;3.97;;;1.30;;
41661;SDS011;27351;45.992;12.666;2023-07-13T05:41:10;3.37;;;1.20;;
41661;SDS011;27351;45.992;12.666;2023-07-13T05:43:35;3.35;;;0.93;;
41661;SDS011;27351;45.992;12.666;2023-07-13T05:46:01;4.30;;;1.13;;
41661;SDS011;27351;45.992;12.666;2023-07-13T05:48:27;3.53;;;1.20;;
41661;SDS011;27351;45.992;12.666;2023-07-13T05:50:52;3.47;;;1.00;;
41661;SDS011;27351;45.992;12.666;2023-07-13T05:53:18;6.57;;;1.73;;
41661;SDS011;27351;45.992;12.666;2023-07-13T05:55:44;2.53;;;1.02;;
41661;SDS011;27351;45.992;12.666;2023-07-13T05:58:13;2.23;;;0.77;;
41661;SDS011;27351;45.992;12.666;2023-07-13T06:00:38;3.40;;;1.03;;
41661;SDS011;27351;45.992;12.666;2023-07-13T06:03:04;2.30;;;1.03;;
41661;SDS011;27351;45.992;12.666;2023-07-13T06:05:29;3.40;;;1.30;;
41661;SDS011;27351;45.992;12.666;2023-07-13T06:07:55;4.93;;;1.50;;
41661;SDS011;27351;45.992;12.666;2023-07-13T06:10:21;4.50;;;1.03;;
41661;SDS011;27351;45.992;12.666;2023-07-13T06:12:46;2.43;;;1.37;;
41661;SDS011;27351;45.992;12.666;2023-07-13T06:15:12;2.40;;;0.80;;
41661;SDS011;27351;45.992;12.666;2023-07-13T06:17:38;2.22;;;1.10;;
41661;SDS011;27351;45.992;12.666;2023-07-13T06:20:03;3.50;;;1.30;;
41661;SDS011;27351;45.992;12.666;2023-07-13T06:22:29;4.82;;;1.45;;
41661;SDS011;27351;45.992;12.666;2023-07-13T06:24:55;3.42;;;1.33;;
41661;SDS011;27351;45.992;12.666;2023-07-13T06:27:20;4.90;;;1.10;;
41661;SDS011;27351;45.992;12.666;2023-07-13T06:29:46;5.37;;;1.80;;
41661;SDS011;27351;45.992;12.666;2023-07-13T06:32:12;3.47;;;1.23;;
41661;SDS011;27351;45.992;12.666;2023-07-13T06:34:37;5.00;;;1.20;;
41661;SDS011;27351;45.992;12.666;2023-07-13T06:37:03;2.40;;;0.93;;
41661;SDS011;27351;45.992;12.666;2023-07-13T06:39:29;4.87;;;1.10;;
41661;SDS011;27351;45.992;12.666;2023-07-13T06:41:54;4.43;;;1.63;;
41661;SDS011;27351;45.992;12.666;2023-07-13T06:44:20;5.55;;;1.90;;
41661;SDS011;27351;45.992;12.666;2023-07-13T06:46:46;3.00;;;0.90;;
41661;SDS011;27351;45.992;12.666;2023-07-13T06:49:11;3.78;;;1.10;;
41661;SDS011;27351;45.992;12.666;2023-07-13T06:51:37;4.00;;;1.20;;
41661;SDS011;27351;45.992;12.666;2023-07-13T06:54:03;1.97;;;0.73;;
41661;SDS011;27351;45.992;12.666;2023-07-13T06:56:28;3.17;;;1.10;;
41661;SDS011;27351;45.992;12.666;2023-07-13T06:58:54;2.20;;;1.00;;
41661;SDS011;27351;45.992;12.666;2023-07-13T07:01:20;3.10;;;1.10;;
41661;SDS011;27351;45.992;12.666;2023-07-13T07:03:45;3.73;;;1.00;;
41661;SDS011;27351;45.992;12.666;2023-07-13T07:06:16;1.60;;;1.00;;
41661;SDS011;27351;45.992;12.666;2023-07-13T07:08:43;3.92;;;0.93;;
41661;SDS011;27351;45.992;12.666;2023-07-13T07:11:13;2.63;;;1.38;;
41661;SDS011;27351;45.992;12.666;2023-07-13T07:13:40;2.95;;;1.35;;
41661;SDS011;27351;45.992;12.666;2023-07-13T07:16:05;3.03;;;1.03;;
41661;SDS011;27351;45.992;12.666;2023-07-13T07:18:32;3.13;;;0.90;;
41661;SDS011;27351;45.992;12.666;2023-07-13T07:20:57;2.33;;;0.80;;
41661;SDS011;27351;45.992;12.666;2023-07-13T07:23:23;3.67;;;0.90;;
41661;SDS011;27351;45.992;12.666;2023-07-13T07:25:49;4.20;;;1.10;;
41661;SDS011;27351;45.992;12.666;2023-07-13T07:28:15;2.40;;;1.00;;
41661;SDS011;27351;45.992;12.666;2023-07-13T07:30:44;4.18;;;1.25;;
41661;SDS011;27351;45.992;12.666;2023-07-13T07:33:09;4.60;;;1.23;;
41661;SDS011;27351;45.992;12.666;2023-07-13T07:35:35;2.00;;;0.77;;
41661;SDS011;27351;45.992;12.666;2023-07-13T07:38:01;4.40;;;1.23;;
41661;SDS011;27351;45.992;12.666;2023-07-13T07:40:27;3.83;;;1.40;;
41661;SDS011;27351;45.992;12.666;2023-07-13T07:42:52;2.80;;;1.00;;
41661;SDS011;27351;45.992;12.666;2023-07-13T07:45:18;3.73;;;1.23;;
41661;SDS011;27351;45.992;12.666;2023-07-13T07:47:44;5.00;;;1.50;;
41661;SDS011;27351;45.992;12.666;2023-07-13T07:50:09;5.70;;;1.40;;
41661;SDS011;27351;45.992;12.666;2023-07-13T07:52:35;2.60;;;1.10;;
41661;SDS011;27351;45.992;12.666;2023-07-13T07:55:01;3.53;;;1.10;;
41661;SDS011;27351;45.992;12.666;2023-07-13T07:57:26;2.83;;;1.20;;
41661;SDS011;27351;45.992;12.666;2023-07-13T07:59:52;2.17;;;1.00;;
41661;SDS011;27351;45.992;12.666;2023-07-13T08:02:17;3.60;;;1.07;;
41661;SDS011;27351;45.992;12.666;2023-07-13T08:04:43;2.80;;;1.00;;
41661;SDS011;27351;45.992;12.666;2023-07-13T08:07:09;4.72;;;1.20;;
41661;SDS011;27351;45.992;12.666;2023-07-13T08:09:34;3.20;;;1.20;;
41661;SDS011;27351;45.992;12.666;2023-07-13T08:12:00;2.67;;;1.20;;
41661;SDS011;27351;45.992;12.666;2023-07-13T08:14:26;4.35;;;1.55;;
41661;SDS011;27351;45.992;12.666;2023-07-13T08:16:51;5.00;;;1.35;;
41661;SDS011;27351;45.992;12.666;2023-07-13T08:19:17;3.20;;;1.00;;
41661;SDS011;27351;45.992;12.666;2023-07-13T08:21:43;3.33;;;1.20;;
41661;SDS011;27351;45.992;12.666;2023-07-13T08:24:09;1.98;;;1.00;;
41661;SDS011;27351;45.992;12.666;2023-07-13T08:26:35;2.83;;;1.00;;
41661;SDS011;27351;45.992;12.666;2023-07-13T08:29:00;3.55;;;1.10;;
41661;SDS011;27351;45.992;12.666;2023-07-13T08:31:27;3.00;;;1.00;;
41661;SDS011;27351;45.992;12.666;2023-07-13T08:33:53;2.47;;;1.00;;
41661;SDS011;27351;45.992;12.666;2023-07-13T08:36:18;2.83;;;1.08;;
41661;SDS011;27351;45.992;12.666;2023-07-13T08:38:44;2.83;;;1.00;;
41661;SDS011;27351;45.992;12.666;2023-07-13T08:41:16;4.07;;;1.58;;
41661;SDS011;27351;45.992;12.666;2023-07-13T08:43:42;3.00;;;0.90;;
41661;SDS011;27351;45.992;12.666;2023-07-13T08:53:58;3.53;;;1.30;;
41661;SDS011;27351;45.992;12.666;2023-07-13T08:56:25;2.60;;;0.90;;
41661;SDS011;27351;45.992;12.666;2023-07-13T08:58:57;5.72;;;1.27;;
41661;SDS011;27351;45.992;12.666;2023-07-13T09:01:25;2.60;;;1.20;;
41661;SDS011;27351;45.992;12.666;2023-07-13T09:06:31;3.55;;;1.35;;
41661;SDS011;27351;45.992;12.666;2023-07-13T09:09:04;3.70;;;1.20;;
41661;SDS011;27351;45.992;12.666;2023-07-13T09:14:06;6.17;;;1.57;;
41661;SDS011;27351;45.992;12.666;2023-07-13T09:16:37;3.17;;;1.00;;
41661;SDS011;27351;45.992;12.666;2023-07-13T09:19:04;2.55;;;1.00;;
41661;SDS011;27351;45.992;12.666;2023-07-13T09:21:36;2.78;;;1.00;;
41661;SDS011;27351;45.992;12.666;2023-07-13T09:26:46;3.33;;;1.00;;
41661;SDS011;27351;45.992;12.666;2023-07-13T09:29:14;3.50;;;0.90;;
41661;SDS011;27351;45.992;12.666;2023-07-13T09:31:45;4.57;;;1.08;;
41661;SDS011;27351;45.992;12.666;2023-07-13T09:34:12;3.38;;;1.15;;
41661;SDS011;27351;45.992;12.666;2023-07-13T09:36:38;2.80;;;1.17;;
41661;SDS011;27351;45.992;12.666;2023-07-13T09:42:16;3.17;;;1.05;;
41661;SDS011;27351;45.992;12.666;2023-07-13T09:44:33;4.75;;;1.27;;
41661;SDS011;27351;45.992;12.666;2023-07-13T09:46:59;3.35;;;1.20;;
41661;SDS011;27351;45.992;12.666;2023-07-13T09:49:43;8.70;;;2.63;;
41661;SDS011;27351;45.992;12.666;2023-07-13T09:52:12;12.60;;;3.35;;
41661;SDS011;27351;45.992;12.666;2023-07-13T09:54:39;5.15;;;2.50;;
41661;SDS011;27351;45.992;12.666;2023-07-13T09:57:16;7.88;;;2.65;;
41661;SDS011;27351;45.992;12.666;2023-07-13T09:59:48;6.88;;;2.20;;
41661;SDS011;27351;45.992;12.666;2023-07-13T10:02:28;6.43;;;2.00;;
41661;SDS011;27351;45.992;12.666;2023-07-13T10:04:58;4.13;;;1.70;;
41661;SDS011;27351;45.992;12.666;2023-07-13T10:07:24;5.82;;;1.60;;
41661;SDS011;27351;45.992;12.666;2023-07-13T10:09:56;5.30;;;1.75;;
41661;SDS011;27351;45.992;12.666;2023-07-13T10:12:22;5.55;;;1.70;;
41661;SDS011;27351;45.992;12.666;2023-07-13T10:14:59;5.18;;;2.05;;
41661;SDS011;27351;45.992;12.666;2023-07-13T10:17:26;5.63;;;2.30;;
41661;SDS011;27351;45.992;12.666;2023-07-13T10:19:57;7.05;;;2.45;;
41661;SDS011;27351;45.992;12.666;2023-07-13T10:22:27;8.13;;;2.87;;
41661;SDS011;27351;45.992;12.666;2023-07-13T10:24:55;3.83;;;1.87;;
41661;SDS011;27351;45.992;12.666;2023-07-13T10:27:32;4.17;;;1.67;;
41661;SDS011;27351;45.992;12.666;2023-07-13T10:30:01;5.60;;;2.28;;
41661;SDS011;27351;45.992;12.666;2023-07-13T10:32:30;3.53;;;1.67;;
41661;SDS011;27351;45.992;12.666;2023-07-13T10:34:55;6.82;;;2.00;;
41661;SDS011;27351;45.992;12.666;2023-07-13T10:37:27;6.10;;;1.80;;
41661;SDS011;27351;45.992;12.666;2023-07-13T10:39:53;5.90;;;2.30;;
41661;SDS011;27351;45.992;12.666;2023-07-13T10:42:39;5.07;;;1.70;;
41661;SDS011;27351;45.992;12.666;2023-07-13T10:45:40;8.98;;;2.35;;
41661;SDS011;27351;45.992;12.666;2023-07-13T10:47:58;4.55;;;1.90;;
41661;SDS011;27351;45.992;12.666;2023-07-13T10:50:25;4.47;;;2.00;;
41661;SDS011;27351;45.992;12.666;2023-07-13T10:52:53;6.10;;;2.47;;
41661;SDS011;27351;45.992;12.666;2023-07-13T10:58:02;5.73;;;2.00;;
41661;SDS011;27351;45.992;12.666;2023-07-13T11:00:31;4.95;;;1.70;;
41661;SDS011;27351;45.992;12.666;2023-07-13T11:03:00;7.50;;;1.98;;
41661;SDS011;27351;45.992;12.666;2023-07-13T11:05:28;3.53;;;1.45;;
41661;SDS011;27351;45.992;12.666;2023-07-13T11:07:56;5.90;;;1.95;;
41661;SDS011;27351;45.992;12.666;2023-07-13T11:13:58;5.55;;;2.15;;
41661;SDS011;27351;45.992;12.666;2023-07-13T11:15:58;5.03;;;2.00;;
41661;SDS011;27351;45.992;12.666;2023-07-13T11:18:24;7.47;;;1.83;;
41661;SDS011;27351;45.992;12.666;2023-07-13T11:20:50;5.90;;;2.00;;
41661;SDS011;27351;45.992;12.666;2023-07-13T11:25:42;5.78;;;2.20;;
41661;SDS011;27351;45.992;12.666;2023-07-13T11:30:41;3.85;;;1.75;;
41661;SDS011;27351;45.992;12.666;2023-07-13T11:33:16;4.65;;;1.92;;
41661;SDS011;27351;45.992;12.666;2023-07-13T11:38:18;5.13;;;1.83;;
41661;SDS011;27351;45.992;12.666;2023-07-13T11:40:45;5.80;;;2.38;;
41661;SDS011;27351;45.992;12.666;2023-07-13T11:43:12;3.95;;;1.70;;
41661;SDS011;27351;45.992;12.666;2023-07-13T11:45:38;7.63;;;2.20;;
41661;SDS011;27351;45.992;12.666;2023-07-13T11:48:04;5.90;;;2.40;;
41661;SDS011;27351;45.992;12.666;2023-07-13T11:50:30;6.00;;;2.50;;
41661;SDS011;27351;45.992;12.666;2023-07-13T11:52:57;5.53;;;2.22;;
41661;SDS011;27351;45.992;12.666;2023-07-13T11:55:24;5.70;;;2.00;;
41661;SDS011;27351;45.992;12.666;2023-07-13T11:57:51;9.18;;;2.33;;
41661;SDS011;27351;45.992;12.666;2023-07-13T12:00:21;5.45;;;2.13;;
41661;SDS011;27351;45.992;12.666;2023-07-13T12:02:56;9.45;;;2.47;;
41661;SDS011;27351;45.992;12.666;2023-07-13T12:05:22;6.22;;;2.15;;
41661;SDS011;27351;45.992;12.666;2023-07-13T12:07:49;19.48;;;2.97;;
41661;SDS011;27351;45.992;12.666;2023-07-13T12:12:48;9.13;;;2.20;;
41661;SDS011;27351;45.992;12.666;2023-07-13T12:15:13;10.38;;;2.53;;
41661;SDS011;27351;45.992;12.666;2023-07-13T12:17:40;7.45;;;2.05;;
41661;SDS011;27351;45.992;12.666;2023-07-13T12:20:26;21.70;;;4.10;;
41661;SDS011;27351;45.992;12.666;2023-07-13T12:22:52;5.00;;;2.20;;
41661;SDS011;27351;45.992;12.666;2023-07-13T12:25:18;6.05;;;1.70;;
41661;SDS011;27351;45.992;12.666;2023-07-13T12:27:50;3.60;;;1.67;;
41661;SDS011;27351;45.992;12.666;2023-07-13T12:30:27;6.60;;;1.75;;
41661;SDS011;27351;45.992;12.666;2023-07-13T12:32:56;5.72;;;2.00;;
41661;SDS011;27351;45.992;12.666;2023-07-13T12:35:22;3.70;;;1.60;;
41661;SDS011;27351;45.992;12.666;2023-07-13T12:37:48;5.80;;;2.40;;
41661;SDS011;27351;45.992;12.666;2023-07-13T12:40:17;5.38;;;2.45;;
41661;SDS011;27351;45.992;12.666;2023-07-13T12:42:48;5.30;;;2.15;;
41661;SDS011;27351;45.992;12.666;2023-07-13T12:45:21;5.18;;;2.38;;
41661;SDS011;27351;45.992;12.666;2023-07-13T12:47:48;5.53;;;2.30;;
41661;SDS011;27351;45.992;12.666;2023-07-13T12:50:15;5.35;;;2.40;;
41661;SDS011;27351;45.992;12.666;2023-07-13T12:52:42;5.93;;;3.00;;
41661;SDS011;27351;45.992;12.666;2023-07-13T12:55:16;6.50;;;2.78;;
41661;SDS011;27351;45.992;12.666;2023-07-13T12:57:50;6.17;;;2.90;;
41661;SDS011;27351;45.992;12.666;2023-07-13T13:00:23;5.93;;;2.80;;
41661;SDS011;27351;45.992;12.666;2023-07-13T13:02:53;7.65;;;3.05;;
41661;SDS011;27351;45.992;12.666;2023-07-13T13:05:20;8.73;;;2.70;;
41661;SDS011;27351;45.992;12.666;2023-07-13T13:07:49;6.03;;;1.95;;
41661;SDS011;27351;45.992;12.666;2023-07-13T13:10:14;6.25;;;2.53;;
41661;SDS011;27351;45.992;12.666;2023-07-13T13:12:40;6.20;;;2.17;;
41661;SDS011;27351;45.992;12.666;2023-07-13T13:15:09;7.07;;;2.40;;
41661;SDS011;27351;45.992;12.666;2023-07-13T13:17:35;5.70;;;2.35;;
41661;SDS011;27351;45.992;12.666;2023-07-13T13:20:00;6.50;;;2.75;;
41661;SDS011;27351;45.992;12.666;2023-07-13T13:22:26;4.77;;;1.80;;
41661;SDS011;27351;45.992;12.666;2023-07-13T13:24:52;4.60;;;2.13;;
41661;SDS011;27351;45.992;12.666;2023-07-13T13:27:18;6.43;;;2.17;;
41661;SDS011;27351;45.992;12.666;2023-07-13T13:29:44;5.97;;;2.00;;
41661;SDS011;27351;45.992;12.666;2023-07-13T13:32:14;3.90;;;1.83;;
41661;SDS011;27351;45.992;12.666;2023-07-13T13:34:39;4.50;;;1.80;;
41661;SDS011;27351;45.992;12.666;2023-07-13T13:37:26;6.43;;;2.47;;
41661;SDS011;27351;45.992;12.666;2023-07-13T13:39:51;6.78;;;2.00;;
41661;SDS011;27351;45.992;12.666;2023-07-13T13:42:18;7.95;;;2.17;;
41661;SDS011;27351;45.992;12.666;2023-07-13T13:44:46;4.75;;;2.10;;
41661;SDS011;27351;45.992;12.666;2023-07-13T13:47:30;8.20;;;2.83;;
41661;SDS011;27351;45.992;12.666;2023-07-13T13:49:57;6.95;;;2.40;;
41661;SDS011;27351;45.992;12.666;2023-07-13T13:52:23;6.47;;;1.97;;
41661;SDS011;27351;45.992;12.666;2023-07-13T13:54:49;5.07;;;2.15;;
41661;SDS011;27351;45.992;12.666;2023-07-13T13:57:15;4.37;;;1.90;;
41661;SDS011;27351;45.992;12.666;2023-07-13T13:59:41;6.97;;;2.03;;
41661;SDS011;27351;45.992;12.666;2023-07-13T14:02:15;7.43;;;2.20;;
41661;SDS011;27351;45.992;12.666;2023-07-13T14:04:45;7.03;;;2.30;;
41661;SDS011;27351;45.992;12.666;2023-07-13T14:07:11;5.13;;;2.40;;
41661;SDS011;27351;45.992;12.666;2023-07-13T14:09:36;4.63;;;1.80;;
41661;SDS011;27351;45.992;12.666;2023-07-13T14:12:03;4.47;;;2.00;;
41661;SDS011;27351;45.992;12.666;2023-07-13T14:14:30;6.75;;;2.30;;
41661;SDS011;27351;45.992;12.666;2023-07-13T14:16:56;5.97;;;2.13;;
41661;SDS011;27351;45.992;12.666;2023-07-13T14:19:23;6.63;;;2.50;;
41661;SDS011;27351;45.992;12.666;2023-07-13T14:21:49;6.10;;;2.10;;
41661;SDS011;27351;45.992;12.666;2023-07-13T14:24:15;5.25;;;2.42;;
41661;SDS011;27351;45.992;12.666;2023-07-13T14:26:41;9.25;;;2.97;;
41661;SDS011;27351;45.992;12.666;2023-07-13T14:29:15;4.90;;;2.28;;
41661;SDS011;27351;45.992;12.666;2023-07-13T14:31:42;6.67;;;2.43;;
41661;SDS011;27351;45.992;12.666;2023-07-13T14:34:09;5.00;;;2.08;;
41661;SDS011;27351;45.992;12.666;2023-07-13T14:36:42;5.18;;;2.17;;
41661;SDS011;27351;45.992;12.666;2023-07-13T14:39:23;4.43;;;2.17;;
41661;SDS011;27351;45.992;12.666;2023-07-13T14:41:53;5.88;;;2.05;;
41661;SDS011;27351;45.992;12.666;2023-07-13T14:44:24;4.57;;;1.83;;
41661;SDS011;27351;45.992;12.666;2023-07-13T14:46:51;6.28;;;2.58;;
41661;SDS011;27351;45.992;12.666;2023-07-13T14:49:34;5.25;;;2.22;;
41661;SDS011;27351;45.992;12.666;2023-07-13T14:52:01;6.55;;;2.10;;
41661;SDS011;27351;45.992;12.666;2023-07-13T14:54:27;8.55;;;2.33;;
41661;SDS011;27351;45.992;12.666;2023-07-13T14:56:52;4.53;;;1.70;;
41661;SDS011;27351;45.992;12.666;2023-07-13T14:59:18;5.32;;;1.85;;
41661;SDS011;27351;45.992;12.666;2023-07-13T15:01:44;4.00;;;1.80;;
41661;SDS011;27351;45.992;12.666;2023-07-13T15:04:10;9.38;;;2.13;;
41661;SDS011;27351;45.992;12.666;2023-07-13T15:07:18;5.33;;;2.20;;
41661;SDS011;27351;45.992;12.666;2023-07-13T15:09:25;8.57;;;2.28;;